Time;durP1;ratioP1;P1;durP2;ratioP2;P2;SDS_P1;SDS_P2;PMS_P1;PMS_P2;Temp;Humidity;BMP_temperature;BMP_pressure;BME280_temperature;BME280_humidity;BME280_pressure;Samples;Min_cycle;Max_cycle;Signal;HPM_P1;HPM_P2
2022/02/17 00:00:30;;;;;;;66.22;52.50;;;;;;;;;;4998843;28;20050;-82
2022/02/17 00:02:55;;;;;;;77.37;54.37;;;;;;;;;;4995866;28;20122;-83
2022/02/17 00:05:21;;;;;;;65.90;52.43;;;;;;;;;;5001045;28;20276;-83
2022/02/17 00:07:47;;;;;;;81.47;54.80;;;;;;;;;;4977622;28;20090;-82
2022/02/17 00:10:13;;;;;;;63.88;51.40;;;;;;;;;;4990903;28;20045;-82
2022/02/17 00:12:38;;;;;;;83.30;54.00;;;;;;;;;;4975301;28;20110;-82
2022/02/17 00:15:04;;;;;;;62.50;52.43;;;;;;;;;;4982847;28;20073;-82
2022/02/17 00:17:32;;;;;;;67.05;51.95;;;;;;;;;;4991787;28;20022;-82
2022/02/17 00:19:57;;;;;;;73.45;52.95;;;;;;;;;;4995374;28;20041;-82
2022/02/17 00:22:23;;;;;;;69.40;52.55;;;;;;;;;;4982267;28;20042;-81
2022/02/17 00:24:48;;;;;;;75.83;54.10;;;;;;;;;;4985565;28;20022;-82
2022/02/17 00:27:14;;;;;;;75.57;54.37;;;;;;;;;;4973903;28;20053;-82
2022/02/17 00:29:39;;;;;;;70.68;52.67;;;;;;;;;;4991851;28;20467;-83
2022/02/17 00:32:05;;;;;;;57.67;51.50;;;;;;;;;;5008903;28;20041;-83
2022/02/17 00:34:30;;;;;;;68.57;52.67;;;;;;;;;;5005866;28;20042;-82
2022/02/17 00:36:55;;;;;;;74.37;52.93;;;;;;;;;;5006961;28;20307;-82
2022/02/17 00:39:21;;;;;;;67.27;51.33;;;;;;;;;;4991587;28;20119;-82
2022/02/17 00:41:46;;;;;;;67.60;51.50;;;;;;;;;;5010339;28;20086;-82
2022/02/17 00:44:13;;;;;;;66.27;52.70;;;;;;;;;;4990536;28;20030;-83
2022/02/17 00:46:39;;;;;;;60.78;51.95;;;;;;;;;;5007294;28;20038;-82
2022/02/17 00:49:04;;;;;;;69.68;53.90;;;;;;;;;;4991436;28;20022;-83
2022/02/17 00:51:33;;;;;;;63.67;51.17;;;;;;;;;;5010998;28;20398;-83
2022/02/17 00:53:59;;;;;;;70.88;52.33;;;;;;;;;;4991828;28;20102;-82
2022/02/17 00:56:24;;;;;;;57.60;51.03;;;;;;;;;;5007407;28;20019;-81
2022/02/17 00:58:49;;;;;;;66.78;52.85;;;;;;;;;;4986002;28;20059;-82
2022/02/17 01:01:14;;;;;;;70.80;52.83;;;;;;;;;;5009710;28;20026;-81
2022/02/17 01:03:39;;;;;;;81.03;54.47;;;;;;;;;;4991361;28;20028;-82
2022/02/17 01:06:05;;;;;;;70.23;53.37;;;;;;;;;;4997339;28;20233;-83
2022/02/17 01:08:30;;;;;;;65.97;53.00;;;;;;;;;;4990794;28;20061;-82
2022/02/17 01:10:56;;;;;;;69.80;52.50;;;;;;;;;;4978718;28;20038;-82
2022/02/17 01:13:24;;;;;;;66.05;51.83;;;;;;;;;;4996705;28;20050;-82
2022/02/17 01:15:50;;;;;;;65.50;51.78;;;;;;;;;;4981400;28;20133;-83
2022/02/17 01:18:18;;;;;;;63.92;52.20;;;;;;;;;;4998739;28;20053;-81
2022/02/17 01:20:43;;;;;;;63.45;51.78;;;;;;;;;;4985660;28;20026;-83
2022/02/17 01:23:09;;;;;;;64.30;52.43;;;;;;;;;;4984518;28;20019;-83
2022/02/17 01:25:34;;;;;;;66.67;52.43;;;;;;;;;;4983729;28;20053;-82
2022/02/17 01:27:59;;;;;;;65.83;51.83;;;;;;;;;;4996093;28;20018;-82
2022/02/17 01:30:25;;;;;;;63.10;52.30;;;;;;;;;;4992263;28;20058;-82
2022/02/17 01:32:50;;;;;;;78.77;53.73;;;;;;;;;;4992280;28;20054;-80
2022/02/17 01:35:15;;;;;;;60.03;51.97;;;;;;;;;;4986902;28;20034;-81
2022/02/17 01:37:42;;;;;;;63.87;51.80;;;;;;;;;;4980715;28;20037;-82
2022/02/17 01:40:08;;;;;;;61.25;51.38;;;;;;;;;;4986033;28;20054;-84
2022/02/17 01:42:34;;;;;;;66.93;52.45;;;;;;;;;;4988338;28;20019;-82
2022/02/17 01:45:01;;;;;;;65.83;51.27;;;;;;;;;;4988084;28;20030;-80
2022/02/17 01:47:26;;;;;;;67.82;52.53;;;;;;;;;;4987996;28;20086;-82
2022/02/17 01:49:51;;;;;;;64.00;52.20;;;;;;;;;;5006147;28;20027;-81
2022/02/17 01:52:17;;;;;;;82.93;54.22;;;;;;;;;;4984153;28;20027;-80
2022/02/17 01:54:43;;;;;;;63.83;51.53;;;;;;;;;;4992677;28;20278;-78
2022/02/17 01:57:11;;;;;;;67.78;53.40;;;;;;;;;;5002174;23;20051;-80
2022/02/17 01:59:36;;;;;;;67.07;52.35;;;;;;;;;;4996026;28;20019;-78
2022/02/17 02:02:01;;;;;;;61.13;51.63;;;;;;;;;;4993630;28;20030;-80
2022/02/17 02:04:27;;;;;;;68.90;53.53;;;;;;;;;;4982649;28;20057;-80
2022/02/17 02:06:52;;;;;;;70.27;53.60;;;;;;;;;;4988673;28;20599;-79
2022/02/17 02:09:18;;;;;;;75.30;54.17;;;;;;;;;;4974469;28;20080;-79
2022/02/17 02:11:44;;;;;;;64.13;52.80;;;;;;;;;;4976283;28;20269;-79
2022/02/17 02:14:14;;;;;;;62.40;52.53;;;;;;;;;;4977636;28;20070;-79
2022/02/17 02:16:39;;;;;;;76.07;54.65;;;;;;;;;;4976496;28;20047;-79
2022/02/17 02:19:04;;;;;;;60.87;52.87;;;;;;;;;;4988614;28;20029;-79
2022/02/17 02:21:29;;;;;;;76.70;54.33;;;;;;;;;;4984153;28;20022;-79
2022/02/17 02:23:54;;;;;;;63.27;53.43;;;;;;;;;;4976428;28;20023;-79
2022/02/17 02:26:20;;;;;;;69.23;53.43;;;;;;;;;;4988544;28;20049;-79
2022/02/17 02:28:45;;;;;;;65.53;52.57;;;;;;;;;;4971600;28;20388;-79
2022/02/17 02:31:10;;;;;;;60.77;51.67;;;;;;;;;;4972993;28;20433;-79
2022/02/17 02:33:35;;;;;;;57.70;51.33;;;;;;;;;;4974780;28;20054;-80
2022/02/17 02:36:01;;;;;;;65.63;52.67;;;;;;;;;;4975649;28;20018;-79
2022/02/17 02:38:26;;;;;;;70.63;53.90;;;;;;;;;;4989920;28;20015;-77
2022/02/17 02:40:53;;;;;;;72.97;53.73;;;;;;;;;;5008350;28;20023;-75
2022/02/17 02:43:18;;;;;;;;;;;;;;;;;;4994396;28;20046;-79
2022/02/17 02:45:43;;;;;;;69.90;53.67;;;;;;;;;;5006516;28;19977;-79
2022/02/17 02:48:10;;;;;;;70.20;53.00;;;;;;;;;;4999414;28;20346;-79
2022/02/17 02:50:36;;;;;;;68.15;52.00;;;;;;;;;;4992969;28;20022;-77
2022/02/17 02:53:01;;;;;;;;;;;;;;;;;;5006087;28;20168;-77
2022/02/17 02:55:27;;;;;;;63.55;52.33;;;;;;;;;;5005986;28;19937;-79
2022/02/17 02:57:52;;;;;;;68.53;51.70;;;;;;;;;;4990233;28;20050;-77
2022/02/17 03:00:17;;;;;;;61.50;52.30;;;;;;;;;;4990405;28;20023;-79
2022/02/17 03:02:43;;;;;;;76.03;55.60;;;;;;;;;;4988388;28;20015;-77
2022/02/17 03:05:08;;;;;;;63.70;52.43;;;;;;;;;;4989635;28;20070;-77
2022/02/17 03:07:34;;;;;;;62.10;51.97;;;;;;;;;;4983181;28;20091;-79
2022/02/17 03:09:59;;;;;;;58.87;52.10;;;;;;;;;;4981142;28;20026;-80
2022/02/17 03:12:24;;;;;;;74.47;54.37;;;;;;;;;;4987358;28;20102;-80
2022/02/17 03:14:49;;;;;;;65.07;52.30;;;;;;;;;;4992032;28;20043;-79
2022/02/17 03:17:14;;;;;;;60.80;52.43;;;;;;;;;;4986997;28;20431;-79
2022/02/17 03:19:40;;;;;;;63.27;52.57;;;;;;;;;;4966714;28;20627;-79
2022/02/17 03:22:05;;;;;;;62.77;51.37;;;;;;;;;;4974084;28;20098;-80
2022/02/17 03:24:30;;;;;;;78.80;53.10;;;;;;;;;;4991010;28;20027;-81
2022/02/17 03:26:56;;;;;;;68.83;53.33;;;;;;;;;;4973155;28;20392;-82
2022/02/17 03:29:21;;;;;;;63.17;52.87;;;;;;;;;;4989377;28;20500;-79
2022/02/17 03:31:46;;;;;;;64.23;51.63;;;;;;;;;;4975782;28;20081;-79
2022/02/17 03:34:11;;;;;;;62.50;53.13;;;;;;;;;;4974367;28;20051;-79
2022/02/17 03:36:37;;;;;;;78.30;55.70;;;;;;;;;;4972098;28;20029;-79
2022/02/17 03:39:03;;;;;;;66.57;52.03;;;;;;;;;;4968572;28;20073;-81
2022/02/17 03:41:28;;;;;;;62.05;51.88;;;;;;;;;;4975436;28;20045;-81
2022/02/17 03:43:54;;;;;;;56.73;50.47;;;;;;;;;;4976278;28;20023;-80
2022/02/17 03:46:19;;;;;;;67.03;52.13;;;;;;;;;;4989147;28;20019;-79
2022/02/17 03:48:44;;;;;;;66.27;51.67;;;;;;;;;;4969507;28;20027;-80
2022/02/17 03:51:09;;;;;;;58.03;51.57;;;;;;;;;;4973610;28;20114;-80
2022/02/17 03:53:35;;;;;;;62.47;52.40;;;;;;;;;;4976689;28;20015;-81
2022/02/17 03:56:00;;;;;;;66.07;52.87;;;;;;;;;;4977079;28;20037;-80
2022/02/17 04:01:09;;;;;;;59.28;51.40;;;;;;;;;;4974897;28;20042;-84
2022/02/17 04:03:34;;;;;;;64.83;51.80;;;;;;;;;;4977074;28;20019;-82
2022/02/17 04:05:59;;;;;;;71.70;53.17;;;;;;;;;;4979418;28;20635;-81
2022/02/17 04:08:25;;;;;;;58.03;51.87;;;;;;;;;;4984517;28;20046;-85
2022/02/17 04:10:50;;;;;;;68.27;52.83;;;;;;;;;;4993630;28;20026;-82
2022/02/17 04:13:15;;;;;;;66.63;52.40;;;;;;;;;;4977250;28;20179;-81
2022/02/17 04:15:40;;;;;;;68.93;53.10;;;;;;;;;;4982563;28;20031;-80
2022/02/17 04:18:06;;;;;;;59.47;51.50;;;;;;;;;;4975266;28;20027;-81
2022/02/17 04:20:31;;;;;;;57.60;51.07;;;;;;;;;;5001177;28;20524;-84
2022/02/17 04:22:56;;;;;;;72.27;54.47;;;;;;;;;;5003496;28;20086;-80
2022/02/17 04:25:21;;;;;;;66.93;52.40;;;;;;;;;;5000223;28;20015;-81
2022/02/17 04:27:47;;;;;;;64.17;52.13;;;;;;;;;;4989427;28;20061;-83
2022/02/17 04:30:12;;;;;;;65.97;52.73;;;;;;;;;;4979100;28;20023;-81
2022/02/17 04:32:37;;;;;;;72.07;53.37;;;;;;;;;;4979371;28;20079;-80
2022/02/17 04:35:02;;;;;;;65.53;52.03;;;;;;;;;;4979036;28;20019;-80
2022/02/17 04:37:28;;;;;;;64.50;53.77;;;;;;;;;;4977836;28;20083;-79
2022/02/17 04:39:53;;;;;;;66.90;52.67;;;;;;;;;;4996305;28;20007;-79
2022/02/17 04:42:18;;;;;;;62.83;52.33;;;;;;;;;;5001578;28;20018;-79
2022/02/17 04:44:45;;;;;;;68.77;52.67;;;;;;;;;;4982625;28;20097;-80
2022/02/17 04:47:10;;;;;;;71.78;54.13;;;;;;;;;;4975728;28;20025;-80
2022/02/17 04:49:35;;;;;;;71.17;53.63;;;;;;;;;;4976328;28;20022;-80
2022/02/17 04:52:00;;;;;;;75.70;52.28;;;;;;;;;;4978517;28;20073;-78
2022/02/17 04:54:27;;;;;;;66.50;52.30;;;;;;;;;;4996932;28;20019;-79
2022/02/17 04:56:52;;;;;;;;;;;;;;;;;;4979107;28;20074;-79
2022/02/17 04:59:17;;;;;;;67.47;52.25;;;;;;;;;;4997890;28;19910;-80
2022/02/17 05:01:43;;;;;;;63.87;51.30;;;;;;;;;;4986271;28;20014;-79
2022/02/17 05:04:08;;;;;;;62.53;52.13;;;;;;;;;;4992432;28;20023;-78
2022/02/17 05:06:33;;;;;;;75.57;52.90;;;;;;;;;;4991600;28;20027;-78
2022/02/17 05:08:58;;;;;;;66.17;52.80;;;;;;;;;;4998621;28;20007;-78
2022/02/17 05:11:23;;;;;;;62.80;52.83;;;;;;;;;;4987011;28;20034;-80
2022/02/17 05:13:48;;;;;;;64.47;51.73;;;;;;;;;;5003010;28;20018;-79
2022/02/17 05:16:14;;;;;;;71.93;54.40;;;;;;;;;;4998204;28;20026;-79
2022/02/17 05:18:39;;;;;;;65.97;53.00;;;;;;;;;;4992920;28;20049;-77
2022/02/17 05:21:04;;;;;;;67.93;52.83;;;;;;;;;;4993923;28;20038;-79
2022/02/17 05:23:29;;;;;;;64.90;52.23;;;;;;;;;;4987945;28;20161;-79
2022/02/17 05:25:54;;;;;;;79.40;54.40;;;;;;;;;;4986276;28;20152;-79
2022/02/17 05:28:20;;;;;;;63.63;52.53;;;;;;;;;;4982670;28;20026;-80
2022/02/17 05:30:45;;;;;;;78.43;54.37;;;;;;;;;;4987635;28;20038;-78
2022/02/17 05:33:11;;;;;;;65.40;51.60;;;;;;;;;;4989167;28;20097;-80
2022/02/17 05:35:37;;;;;;;72.53;54.85;;;;;;;;;;4989874;28;20031;-79
2022/02/17 05:38:03;;;;;;;59.60;50.37;;;;;;;;;;4985548;28;20042;-79
2022/02/17 05:40:28;;;;;;;72.32;52.78;;;;;;;;;;4973711;28;20268;-79
2022/02/17 05:42:53;;;;;;;73.27;54.73;;;;;;;;;;4989757;28;20026;-78
2022/02/17 05:45:18;;;;;;;73.03;53.23;;;;;;;;;;4974185;28;20026;-78
2022/02/17 05:47:44;;;;;;;71.77;53.67;;;;;;;;;;4977094;28;20095;-79
2022/02/17 05:50:09;;;;;;;72.32;52.70;;;;;;;;;;4993532;28;19999;-79
2022/02/17 05:52:35;;;;;;;73.17;54.07;;;;;;;;;;4991077;28;20011;-79
2022/02/17 05:55:00;;;;;;;61.13;51.83;;;;;;;;;;4995708;28;20038;-77
2022/02/17 05:57:25;;;;;;;69.63;52.27;;;;;;;;;;4992997;28;20035;-79
2022/02/17 05:59:51;;;;;;;69.43;52.00;;;;;;;;;;5012583;28;20083;-79
2022/02/17 06:02:17;;;;;;;78.32;53.05;;;;;;;;;;5011867;28;20022;-78
2022/02/17 06:04:43;;;;;;;73.87;52.80;;;;;;;;;;4995114;28;20038;-78
2022/02/17 06:07:09;;;;;;;66.95;52.20;;;;;;;;;;4992630;28;20034;-78
2022/02/17 06:09:34;;;;;;;73.43;53.78;;;;;;;;;;4990690;28;20011;-79
2022/02/17 06:11:59;;;;;;;56.80;50.67;;;;;;;;;;5011726;28;20042;-78
2022/02/17 06:14:24;;;;;;;67.68;52.50;;;;;;;;;;4994382;28;20018;-79
2022/02/17 06:16:49;;;;;;;84.30;55.10;;;;;;;;;;4990915;28;20078;-79
2022/02/17 06:19:15;;;;;;;68.93;53.43;;;;;;;;;;5006805;28;20011;-80
2022/02/17 06:21:40;;;;;;;68.23;52.40;;;;;;;;;;4988179;28;20011;-78
2022/02/17 06:24:05;;;;;;;73.27;52.33;;;;;;;;;;4994415;28;20038;-79
2022/02/17 06:26:30;;;;;;;74.17;54.43;;;;;;;;;;4994423;28;20249;-79
2022/02/17 06:28:56;;;;;;;67.67;51.63;;;;;;;;;;4991563;28;20106;-78
2022/02/17 06:31:21;;;;;;;77.33;53.07;;;;;;;;;;4994914;28;20014;-77
2022/02/17 06:33:47;;;;;;;58.95;50.92;;;;;;;;;;4984150;28;20066;-80
2022/02/17 06:36:17;;;;;;;63.53;52.47;;;;;;;;;;4983052;28;20041;-79
2022/02/17 06:38:42;;;;;;;65.45;52.08;;;;;;;;;;4994369;28;20053;-79
2022/02/17 06:41:07;;;;;;;146.57;62.50;;;;;;;;;;4978092;28;20031;-82
2022/02/17 06:43:35;;;;;;;129.73;60.00;;;;;;;;;;4977941;28;20027;-82
2022/02/17 06:46:00;;;;;;;131.88;60.50;;;;;;;;;;4980416;28;20014;-81
2022/02/17 06:48:25;;;;;;;134.00;59.83;;;;;;;;;;4973214;28;20368;-80
2022/02/17 06:50:50;;;;;;;126.93;61.30;;;;;;;;;;4973238;28;20034;-80
2022/02/17 06:53:15;;;;;;;122.53;61.40;;;;;;;;;;4990497;28;20014;-81
2022/02/17 06:55:41;;;;;;;133.60;62.67;;;;;;;;;;4989436;28;20027;-82
2022/02/17 06:58:06;;;;;;;118.13;59.70;;;;;;;;;;4981473;28;20093;-79
2022/02/17 07:00:31;;;;;;;128.03;62.03;;;;;;;;;;4974152;28;20398;-82
2022/02/17 07:02:56;;;;;;;124.93;61.50;;;;;;;;;;4983038;28;20022;-83
2022/02/17 07:05:22;;;;;;;125.07;60.57;;;;;;;;;;4984902;28;20019;-81
2022/02/17 07:07:48;;;;;;;121.38;59.92;;;;;;;;;;4979235;28;20037;-82
2022/02/17 07:10:13;;;;;;;134.93;61.63;;;;;;;;;;4978044;28;20030;-80
2022/02/17 07:12:43;;;;;;;127.70;62.50;;;;;;;;;;4995852;28;20050;-82
2022/02/17 07:15:09;;;;;;;128.98;62.15;;;;;;;;;;4984870;28;20034;-80
2022/02/17 07:17:36;;;;;;;128.10;61.27;;;;;;;;;;4973501;28;20030;-82
2022/02/17 07:20:01;;;;;;;128.63;62.40;;;;;;;;;;4974626;28;20650;-81
2022/02/17 07:22:26;;;;;;;123.63;60.43;;;;;;;;;;4978031;28;20015;-82
2022/02/17 07:24:51;;;;;;;110.97;57.80;;;;;;;;;;4974828;28;20011;-81
2022/02/17 07:27:16;;;;;;;121.33;61.20;;;;;;;;;;4970438;28;20022;-77
2022/02/17 07:29:42;;;;;;;117.07;60.03;;;;;;;;;;4969661;28;20027;-77
2022/02/17 07:32:08;;;;;;;98.37;56.63;;;;;;;;;;4979115;28;20033;-81
2022/02/17 07:34:34;;;;;;;109.82;57.45;;;;;;;;;;4980425;28;20102;-82
2022/02/17 07:36:59;;;;;;;137.87;66.17;;;;;;;;;;4975371;28;20130;-81
2022/02/17 07:39:24;;;;;;;114.87;58.97;;;;;;;;;;4989197;28;20019;-81
2022/02/17 07:41:49;;;;;;;149.77;67.97;;;;;;;;;;4973201;28;20030;-81
2022/02/17 07:44:14;;;;;;;113.33;58.63;;;;;;;;;;4968759;28;20082;-82
2022/02/17 07:46:40;;;;;;;122.63;61.37;;;;;;;;;;4978338;28;20087;-80
2022/02/17 07:49:05;;;;;;;102.47;57.33;;;;;;;;;;4996493;28;20041;-80
2022/02/17 07:51:31;;;;;;;107.23;57.27;;;;;;;;;;4987496;28;20027;-79
2022/02/17 07:53:56;;;;;;;108.50;58.23;;;;;;;;;;4986424;28;20015;-80
2022/02/17 07:56:21;;;;;;;107.72;58.45;;;;;;;;;;5001672;23;20041;-81
2022/02/17 07:58:47;;;;;;;103.13;57.00;;;;;;;;;;4984136;28;20031;-80
2022/02/17 08:01:32;;;;;;;101.70;56.60;;;;;;;;;;4994043;28;20391;-81
2022/02/17 08:04:13;;;;;;;103.18;56.58;;;;;;;;;;4984762;28;20470;-81
2022/02/17 08:06:47;;;;;;;109.32;57.42;;;;;;;;;;4999425;28;20015;-81
2022/02/17 08:09:13;;;;;;;102.15;56.55;;;;;;;;;;4978840;28;20038;-81
2022/02/17 08:11:46;;;;;;;100.40;56.08;;;;;;;;;;4999623;28;20026;-80
2022/02/17 08:14:20;;;;;;;104.25;57.13;;;;;;;;;;4997339;28;20564;-82
2022/02/17 08:17:10;;;;;;;116.80;58.30;;;;;;;;;;4998201;28;20082;-81
2022/02/17 08:19:44;;;;;;;100.10;57.55;;;;;;;;;;4996942;28;20019;-81
2022/02/17 08:22:11;;;;;;;111.05;56.42;;;;;;;;;;4992021;28;20033;-80
2022/02/17 08:24:39;;;;;;;104.55;57.22;;;;;;;;;;4997647;28;20022;-81
2022/02/17 08:27:10;;;;;;;110.35;58.40;;;;;;;;;;4981850;28;20029;-79
2022/02/17 08:29:38;;;;;;;109.95;58.22;;;;;;;;;;4971574;28;20015;-80
2022/02/17 08:32:12;;;;;;;109.30;57.65;;;;;;;;;;4985210;28;20506;-81
2022/02/17 08:34:44;;;;;;;102.72;56.58;;;;;;;;;;4978733;28;20107;-81
2022/02/17 08:37:21;;;;;;;117.22;58.30;;;;;;;;;;4982613;28;20110;-82
2022/02/17 08:40:22;;;;;;;109.63;57.53;;;;;;;;;;4995382;28;20110;-81
2022/02/17 08:42:50;;;;;;;109.55;57.95;;;;;;;;;;4988405;28;20415;-81
2022/02/17 08:45:15;;;;;;;98.07;56.28;;;;;;;;;;5005626;28;20508;-82
2022/02/17 08:47:50;;;;;;;116.50;59.77;;;;;;;;;;4994953;28;20062;-80
2022/02/17 08:50:15;;;;;;;98.43;56.60;;;;;;;;;;4987950;28;20023;-80
2022/02/17 08:52:41;;;;;;;121.63;61.40;;;;;;;;;;4977636;28;20027;-80
2022/02/17 08:55:07;;;;;;;105.70;56.50;;;;;;;;;;4972377;28;20038;-80
2022/02/17 08:57:47;;;;;;;99.75;56.58;;;;;;;;;;4975624;28;20022;-80
2022/02/17 09:00:12;;;;;;;102.45;56.47;;;;;;;;;;4986058;28;20054;-80
2022/02/17 09:02:39;;;;;;;113.70;58.88;;;;;;;;;;4983884;28;20680;-80
2022/02/17 09:05:05;;;;;;;108.20;57.83;;;;;;;;;;4985143;28;20023;-80
2022/02/17 09:07:30;;;;;;;111.95;57.83;;;;;;;;;;5001565;28;20462;-81
2022/02/17 09:09:55;;;;;;;107.27;57.40;;;;;;;;;;5003697;28;20027;-80
2022/02/17 09:12:21;;;;;;;105.43;57.47;;;;;;;;;;5000959;28;20092;-82
2022/02/17 09:14:46;;;;;;;109.87;58.13;;;;;;;;;;4975030;28;20035;-80
2022/02/17 09:17:11;;;;;;;109.13;58.80;;;;;;;;;;4996451;28;20035;-80
2022/02/17 09:19:37;;;;;;;101.20;56.60;;;;;;;;;;4981802;28;20048;-80
2022/02/17 09:22:03;;;;;;;94.80;56.43;;;;;;;;;;4986290;28;19999;-81
2022/02/17 09:24:28;;;;;;;105.03;57.65;;;;;;;;;;4995793;28;20802;-81
2022/02/17 09:26:53;;;;;;;101.07;56.83;;;;;;;;;;4996638;28;20019;-81
2022/02/17 09:29:19;;;;;;;102.77;57.33;;;;;;;;;;4989161;28;20060;-81
2022/02/17 09:31:44;;;;;;;111.00;57.17;;;;;;;;;;4990640;28;20038;-81
2022/02/17 09:34:11;;;;;;;102.17;56.10;;;;;;;;;;4980516;28;20027;-80
2022/02/17 09:36:39;;;;;;;111.50;58.83;;;;;;;;;;4988876;28;20483;-82
2022/02/17 09:39:04;;;;;;;104.47;57.97;;;;;;;;;;4980623;28;20033;-81
2022/02/17 09:41:29;;;;;;;108.73;57.60;;;;;;;;;;4977932;28;20387;-81
2022/02/17 09:44:01;;;;;;;104.93;57.00;;;;;;;;;;4980111;28;20035;-80
2022/02/17 09:46:27;;;;;;;112.75;58.42;;;;;;;;;;4982029;28;20029;-80
2022/02/17 09:49:07;;;;;;;112.10;59.70;;;;;;;;;;4997329;28;20019;-80
2022/02/17 09:51:33;;;;;;;103.78;56.92;;;;;;;;;;4996217;28;20023;-80
2022/02/17 09:53:59;;;;;;;105.63;57.92;;;;;;;;;;4990136;28;20025;-81
2022/02/17 09:56:25;;;;;;;106.40;56.80;;;;;;;;;;5005433;28;20062;-79
2022/02/17 09:58:55;;;;;;;106.55;56.97;;;;;;;;;;5000680;28;20027;-80
2022/02/17 10:01:26;;;;;;;105.30;56.80;;;;;;;;;;5000238;28;20050;-81
2022/02/17 10:04:09;;;;;;;105.18;56.88;;;;;;;;;;5009112;28;19999;-81
2022/02/17 10:06:39;;;;;;;104.68;58.03;;;;;;;;;;5008946;28;20015;-80
2022/02/17 10:09:10;;;;;;;104.70;56.90;;;;;;;;;;4987256;28;19999;-81
2022/02/17 10:11:40;;;;;;;105.75;56.83;;;;;;;;;;5006463;28;20042;-81
2022/02/17 10:14:13;;;;;;;111.13;56.80;;;;;;;;;;4993505;28;20062;-80
2022/02/17 10:17:03;;;;;;;112.68;58.08;;;;;;;;;;5009420;28;20018;-84
2022/02/17 10:19:32;;;;;;;101.35;56.75;;;;;;;;;;4991125;28;20025;-82
2022/02/17 10:22:11;;;;;;;99.22;55.33;;;;;;;;;;5000356;28;20030;-80
2022/02/17 10:24:44;;;;;;;93.25;56.33;;;;;;;;;;5001252;28;20011;-79
